Time;durP1;ratioP1;P1;durP2;ratioP2;P2;SDS_P1;SDS_P2;PMS_P1;PMS_P2;Temp;Humidity;BMP_temperature;BMP_pressure;BME280_temperature;BME280_humidity;BME280_pressure;Samples;Min_cycle;Max_cycle;Signal;HPM_P1;HPM_P2
2022/06/05 00:03:02;;;;;;;24.60;16.10;;;;;;;14.39;67.95;99461.01;106109;1273;25236;-84
2022/06/05 00:05:21;;;;;;;20.40;14.20;;;;;;;14.33;67.95;99469.02;105890;1273;25503;-77
2022/06/05 00:08:18;;;;;;;20.10;15.20;;;;;;;14.32;68.00;99473.91;105968;1274;22836;-85
2022/06/05 00:11:01;;;;;;;18.70;13.20;;;;;;;14.36;68.03;99475.95;105865;1274;24277;-80
2022/06/05 00:13:40;;;;;;;19.60;13.20;;;;;;;14.34;67.99;99473.78;106113;1273;24235;-84
2022/06/05 00:16:11;;;;;;;20.70;14.20;;;;;;;14.37;67.98;99471.52;106115;1273;22656;-84
2022/06/05 00:19:11;;;;;;;20.90;13.90;;;;;;;14.41;67.89;99473.77;105873;1276;23077;-77
2022/06/05 00:22:03;;;;;;;20.50;13.50;;;;;;;14.41;67.96;99471.20;106145;1273;25362;-83
2022/06/05 00:24:40;;;;;;;22.00;14.80;;;;;;;14.37;68.00;99469.96;105925;1274;24201;-82
2022/06/05 00:27:45;;;;;;;19.70;13.40;;;;;;;14.34;68.13;99470.68;105826;1274;23937;-82
2022/06/05 00:30:45;;;;;;;22.10;16.30;;;;;;;14.34;68.08;99467.80;105868;1273;22552;-79
2022/06/05 00:34:00;;;;;;;36.90;23.10;;;;;;;14.32;68.13;99465.63;106019;1273;22531;-82
2022/06/05 00:37:18;;;;;;;33.40;21.40;;;;;;;14.31;68.07;99461.29;106159;1273;22535;-82
2022/06/05 00:40:28;;;;;;;31.10;19.20;;;;;;;14.33;68.08;99455.91;105905;1273;25193;-83
2022/06/05 00:43:22;;;;;;;30.60;21.50;;;;;;;14.32;68.13;99461.73;106134;1273;22713;-80
2022/06/05 00:45:53;;;;;;;38.60;26.40;;;;;;;14.30;68.21;99463.33;105936;1274;22665;-84
2022/06/05 00:49:01;;;;;;;40.30;29.30;;;;;;;14.22;68.20;99465.77;105854;1274;22631;-78
2022/06/05 00:52:07;;;;;;;35.40;25.40;;;;;;;14.15;68.44;99469.75;105896;1274;22719;-84
2022/06/05 00:54:56;;;;;;;39.10;24.80;;;;;;;14.15;68.32;99471.36;106095;1273;24499;-81
2022/06/05 00:58:00;;;;;;;;;;;;;;;;;;;;;
2022/06/05 01:00:35;;;;;;;29.30;19.60;;;;;;;14.13;68.28;99472.61;106077;1273;22553;-85
2022/06/05 01:03:51;;;;;;;27.10;19.90;;;;;;;14.12;68.27;99473.04;105910;1274;25445;-82
2022/06/05 01:06:14;;;;;;;32.80;24.10;;;;;;;14.16;68.35;99478.06;105946;1273;22581;-85
2022/06/05 01:08:44;;;;;;;32.50;23.10;;;;;;;14.11;68.19;99483.30;105895;1273;22700;-81
2022/06/05 01:11:31;;;;;;;32.30;22.00;;;;;;;14.04;68.28;99482.24;105921;1274;22771;-83
2022/06/05 01:14:45;;;;;;;29.20;21.80;;;;;;;14.04;68.35;99482.84;106097;1273;22580;-82
2022/06/05 01:17:48;;;;;;;29.10;20.30;;;;;;;13.95;68.28;99480.13;105663;1281;22694;-81
2022/06/05 01:21:15;;;;;;;;;;;;;;;;;;;;;
2022/06/05 01:24:09;;;;;;;21.90;15.80;;;;;;;13.87;68.52;99482.52;105617;1281;25465;-76
2022/06/05 01:27:04;;;;;;;22.20;14.90;;;;;;;13.89;68.47;99476.66;105617;1281;25249;-79
2022/06/05 01:30:08;;;;;;;21.40;14.20;;;;;;;13.91;68.57;99474.88;105449;1282;24251;-80
2022/06/05 01:32:53;;;;;;;18.10;13.50;;;;;;;13.94;68.59;99481.65;105554;1281;22600;-78
2022/06/05 01:35:55;;;;;;;18.70;13.20;;;;;;;13.95;68.60;99479.56;105592;1281;23187;-86
2022/06/05 01:38:35;;;;;;;19.20;13.90;;;;;;;13.96;68.65;99471.66;105521;1281;25481;-78
2022/06/05 01:41:27;;;;;;;21.70;14.10;;;;;;;13.90;68.76;99478.41;105439;1281;25504;-79
2022/06/05 01:44:39;;;;;;;15.70;12.40;;;;;;;13.74;68.58;99478.54;105505;1281;25219;-79
2022/06/05 01:47:48;;;;;;;;;;;;;;;;;;;;;
2022/06/05 01:50:46;;;;;;;20.30;12.80;;;;;;;13.65;68.86;99473.92;105609;1281;22542;-83
2022/06/05 01:53:39;;;;;;;19.80;12.50;;;;;;;13.65;68.92;99474.44;105625;1281;25320;-77
2022/06/05 01:56:29;;;;;;;16.70;12.10;;;;;;;13.65;68.90;99473.02;105903;1273;24237;-81
2022/06/05 01:59:43;;;;;;;18.50;12.20;;;;;;;13.62;68.74;99468.95;105897;1273;22707;-77
2022/06/05 02:06:29;;;;;;;;;;;;;;;;;;;;;
2022/06/05 02:09:36;;;;;;;16.10;12.20;;;;;;;13.43;68.73;99464.67;105279;1282;25560;-78
2022/06/05 02:13:05;;;;;;;18.00;11.60;;;;;;;13.46;68.84;99459.77;105592;1280;22561;-79
2022/06/05 02:20:09;;;;;;;17.30;11.50;;;;;;;13.43;68.90;99455.60;105097;1285;24219;-82
2022/06/05 02:22:44;;;;;;;14.80;10.80;;;;;;;13.40;68.76;99454.36;105070;1285;22555;-80
2022/06/05 02:25:52;;;;;;;17.70;12.70;;;;;;;13.22;68.65;99448.79;105016;1286;25234;-84
2022/06/05 02:28:52;;;;;;;17.40;11.40;;;;;;;13.07;68.86;99450.62;105132;1285;23007;-86
2022/06/05 02:32:23;;;;;;;14.70;11.20;;;;;;;12.89;68.93;99451.27;105340;1285;22545;-85
2022/06/05 02:39:45;;;;;;;18.00;11.90;;;;;;;12.92;69.48;99449.95;105427;1285;22559;-78
2022/06/05 02:42:53;;;;;;;16.10;11.30;;;;;;;12.99;69.19;99455.34;105453;1281;22549;-81
2022/06/05 02:45:47;;;;;;;16.90;11.80;;;;;;;13.00;69.26;99462.63;105510;1281;25959;-79
2022/06/05 02:49:12;;;;;;;17.00;12.60;;;;;;;12.97;68.91;99460.33;105401;1281;25245;-79
2022/06/05 02:52:12;;;;;;;16.60;11.70;;;;;;;12.78;68.96;99454.83;105589;1281;22554;-84
2022/06/05 02:55:14;;;;;;;18.30;11.90;;;;;;;12.77;69.04;99457.02;105542;1281;26545;-78
2022/06/05 02:58:48;;;;;;;18.50;11.30;;;;;;;12.59;69.04;99446.52;106056;1273;25244;-78
2022/06/05 03:04:30;;;;;;;16.70;11.50;;;;;;;12.59;69.26;99449.25;105585;1281;22904;-79
2022/06/05 03:07:21;;;;;;;17.70;11.80;;;;;;;12.50;69.30;99451.20;105584;1281;22553;-86
2022/06/05 03:09:51;;;;;;;15.70;10.70;;;;;;;12.48;69.32;99453.12;105600;1281;25411;-78
2022/06/05 03:12:41;;;;;;;15.60;10.90;;;;;;;12.50;69.42;99453.85;105607;1281;22753;-80
2022/06/05 03:15:09;;;;;;;16.50;10.10;;;;;;;12.53;69.32;99456.81;105597;1281;22836;-84
2022/06/05 03:17:52;;;;;;;;;;;;;;;;;;;;;
2022/06/05 03:20:25;;;;;;;15.80;11.00;;;;;;;12.58;69.44;99460.19;105564;1281;24373;-79
2022/06/05 03:22:58;;;;;;;17.20;10.90;;;;;;;12.63;69.46;99463.23;105615;1281;22682;-78
2022/06/05 03:25:31;;;;;;;17.60;11.10;;;;;;;12.63;69.47;99462.55;105497;1282;22545;-78
2022/06/05 03:28:01;;;;;;;19.90;10.90;;;;;;;12.63;69.58;99464.44;105497;1281;25362;-78
2022/06/05 03:30:31;;;;;;;15.90;11.00;;;;;;;12.70;69.57;99461.41;105536;1281;22537;-78
2022/06/05 03:33:01;;;;;;;16.30;10.70;;;;;;;12.73;69.53;99462.86;105669;1281;22576;-85
2022/06/05 03:35:43;;;;;;;15.70;10.70;;;;;;;12.78;69.55;99466.61;105168;1285;22563;-83
2022/06/05 03:38:51;;;;;;;18.70;10.70;;;;;;;12.85;69.63;99468.55;105872;1273;24205;-82
2022/06/05 03:41:41;;;;;;;16.90;11.00;;;;;;;12.90;69.44;99462.42;105751;1276;25225;-80
2022/06/05 03:44:12;;;;;;;16.30;10.60;;;;;;;12.95;69.72;99463.14;105896;1276;22575;-79
2022/06/05 03:47:12;;;;;;;14.90;10.50;;;;;;;13.08;69.69;99456.80;105790;1276;22634;-82
2022/06/05 03:49:45;;;;;;;14.70;10.30;;;;;;;13.18;69.50;99459.27;105939;1273;22723;-79
2022/06/05 03:53:18;;;;;;;17.60;11.20;;;;;;;13.23;69.45;99459.98;105900;1273;25334;-78
2022/06/05 03:55:51;;;;;;;15.80;10.60;;;;;;;13.36;69.57;99463.27;105814;1273;22848;-82
2022/06/05 03:58:18;;;;;;;15.00;10.70;;;;;;;13.53;69.57;99467.00;105892;1274;25344;-78
2022/06/05 04:00:52;;;;;;;14.60;9.70;;;;;;;13.65;69.48;99469.23;106070;1273;24317;-78
2022/06/05 04:03:19;;;;;;;13.50;9.50;;;;;;;13.78;69.47;99470.38;105871;1272;25405;-77
2022/06/05 04:06:07;;;;;;;14.50;9.60;;;;;;;13.96;69.67;99470.17;105897;1273;24321;-79
2022/06/05 04:08:57;;;;;;;16.90;10.10;;;;;;;14.20;69.50;99469.02;105893;1273;26785;-84
2022/06/05 04:11:48;;;;;;;13.50;10.00;;;;;;;14.32;69.31;99467.45;105886;1275;22566;-81
2022/06/05 04:14:15;;;;;;;17.60;10.50;;;;;;;14.42;69.17;99469.04;106047;1273;24287;-84
2022/06/05 04:17:01;;;;;;;14.40;10.10;;;;;;;14.50;69.28;99470.70;106185;1273;25229;-78
2022/06/05 04:19:28;;;;;;;16.70;9.90;;;;;;;14.61;69.28;99465.85;105980;1273;22570;-80
2022/06/05 04:22:04;;;;;;;16.10;10.00;;;;;;;14.71;69.38;99461.45;105948;1274;22555;-80
2022/06/05 04:24:37;;;;;;;14.40;9.30;;;;;;;14.81;69.18;99466.84;106086;1273;23950;-83
2022/06/05 04:27:07;;;;;;;14.80;10.40;;;;;;;14.99;69.34;99463.28;105875;1274;24314;-81
2022/06/05 04:29:56;;;;;;;15.40;9.60;;;;;;;15.15;69.25;99460.66;106041;1273;22753;-80
2022/06/05 04:32:27;;;;;;;15.00;9.90;;;;;;;15.35;69.43;99457.86;106028;1273;24343;-75
2022/06/05 04:34:56;;;;;;;16.30;10.40;;;;;;;15.55;69.49;99457.56;105870;1273;23887;-80
2022/06/05 04:37:44;;;;;;;17.80;10.90;;;;;;;15.69;69.35;99453.13;105811;1274;25221;-80
2022/06/05 04:40:34;;;;;;;14.30;9.60;;;;;;;15.82;69.20;99450.05;105779;1275;25515;-81
2022/06/05 04:43:04;;;;;;;16.50;9.90;;;;;;;15.97;69.11;99444.92;105890;1274;24245;-85
2022/06/05 04:45:31;;;;;;;16.70;9.80;;;;;;;16.14;69.00;99439.63;106043;1273;25236;-85
2022/06/05 04:48:18;;;;;;;17.50;9.90;;;;;;;16.31;69.13;99434.66;105914;1274;22626;-84
2022/06/05 04:50:48;;;;;;;17.50;10.20;;;;;;;16.53;69.03;99430.68;105882;1274;22651;-82
2022/06/05 04:53:24;;;;;;;14.70;10.30;;;;;;;16.72;69.00;99431.21;105917;1275;24254;-78
2022/06/05 04:55:53;;;;;;;15.30;10.50;;;;;;;16.90;68.99;99432.10;106056;1273;24260;-84
2022/06/05 04:59:09;;;;;;;14.10;10.60;;;;;;;17.05;68.71;99434.59;105932;1274;25277;-81
2022/06/05 05:01:22;;;;;;;18.50;11.30;;;;;;;17.16;68.39;99440.64;106024;1273;26013;-79
2022/06/05 05:04:07;;;;;;;;;;;;;;;;;;;;;
2022/06/05 05:06:45;;;;;;;13.10;10.00;;;;;;;17.24;68.06;99457.89;105886;1273;22617;-78
2022/06/05 05:09:12;;;;;;;15.10;10.00;;;;;;;17.29;68.10;99455.38;105860;1274;24296;-85
2022/06/05 05:11:59;;;;;;;22.70;15.70;;;;;;;17.40;68.04;99454.20;105881;1273;22605;-78
2022/06/05 05:14:29;;;;;;;18.60;12.10;;;;;;;17.58;68.34;99454.11;106060;1273;24245;-80
2022/06/05 05:16:56;;;;;;;15.50;9.80;;;;;;;17.73;68.16;99456.29;106147;1273;25067;-80
2022/06/05 05:19:49;;;;;;;22.30;17.30;;;;;;;17.81;68.03;99453.54;106048;1273;22800;-83
2022/06/05 05:22:22;;;;;;;25.10;19.90;;;;;;;17.92;67.98;99442.72;106119;1273;24523;-84
2022/06/05 05:24:52;;;;;;;20.70;13.00;;;;;;;18.11;67.99;99443.11;105877;1273;22745;-84
2022/06/05 05:27:21;;;;;;;14.10;10.40;;;;;;;18.28;68.05;99437.58;106046;1273;23130;-80
2022/06/05 05:29:51;;;;;;;18.00;11.70;;;;;;;18.49;67.87;99434.85;103419;1274;3384527;-85
2022/06/05 05:32:22;;;;;;;19.50;12.60;;;;;;;18.67;67.70;99433.24;105820;1273;23950;-83
2022/06/05 05:34:56;;;;;;;25.30;16.80;;;;;;;18.85;67.71;99430.39;105872;1273;22563;-83
2022/06/05 05:38:13;;;;;;;28.50;20.80;;;;;;;19.08;67.83;99428.95;105868;1273;24021;-81
2022/06/05 05:43:53;;;;;;;16.90;10.80;;;;;;;19.59;67.40;99421.20;105835;1275;22515;-76
2022/06/05 05:46:21;;;;;;;14.30;11.00;;;;;;;19.65;67.09;99418.02;105926;1274;22528;-78
2022/06/05 05:49:11;;;;;;;14.40;10.90;;;;;;;19.67;66.93;99422.50;105639;1273;24477;-77
2022/06/05 05:52:02;;;;;;;15.00;10.90;;;;;;;19.78;66.96;99417.25;105685;1273;22560;-78
2022/06/05 05:54:29;;;;;;;15.60;11.50;;;;;;;19.81;66.54;99416.24;105847;1273;24207;-78
2022/06/05 05:56:59;;;;;;;14.20;10.90;;;;;;;19.76;66.47;99417.64;105861;1274;25294;-82
2022/06/05 05:59:29;;;;;;;17.50;11.60;;;;;;;19.82;66.84;99412.11;105874;1273;24384;-79
2022/06/05 06:01:58;;;;;;;16.50;11.50;;;;;;;20.02;67.17;99416.31;106258;1273;25205;-83
2022/06/05 06:04:25;;;;;;;16.00;10.40;;;;;;;20.27;67.30;99420.16;105827;1273;24204;-79
2022/06/05 06:07:25;;;;;;;12.40;10.20;;;;;;;20.55;67.11;99414.11;105808;1273;22554;-79
2022/06/05 06:09:55;;;;;;;15.80;10.40;;;;;;;20.79;66.91;99415.95;105890;1273;24209;-81
2022/06/05 06:12:24;;;;;;;16.80;10.70;;;;;;;20.96;66.77;99419.07;105923;1273;22551;-83
2022/06/05 06:14:51;;;;;;;14.60;11.00;;;;;;;21.12;66.63;99417.24;106029;1273;25297;-78
2022/06/05 06:17:22;;;;;;;15.10;11.10;;;;;;;21.18;66.15;99420.03;105984;1273;22545;-83
2022/06/05 06:19:52;;;;;;;15.50;9.90;;;;;;;21.15;65.82;99419.25;105921;1273;22537;-77
2022/06/05 06:22:20;;;;;;;15.50;11.30;;;;;;;21.04;65.56;99421.95;106074;1275;22553;-80
2022/06/05 06:25:06;;;;;;;14.50;11.00;;;;;;;21.05;66.21;99426.00;105876;1273;25607;-76
2022/06/05 06:27:38;;;;;;;14.40;10.90;;;;;;;21.28;66.63;99424.02;105896;1274;25294;-76
2022/06/05 06:30:21;;;;;;;14.70;12.40;;;;;;;21.52;66.44;99421.57;105832;1274;24259;-76
2022/06/05 06:32:59;;;;;;;16.20;12.80;;;;;;;21.74;66.32;99423.77;105802;1274;22603;-76
2022/06/05 06:36:01;;;;;;;16.30;12.50;;;;;;;21.94;66.14;99419.17;106168;1273;25370;-83
2022/06/05 06:38:29;;;;;;;21.00;12.90;;;;;;;22.09;66.09;99419.08;105914;1273;25349;-76
2022/06/05 06:41:12;;;;;;;16.80;12.70;;;;;;;22.25;66.16;99420.11;106208;1273;25309;-76
2022/06/05 06:44:03;;;;;;;15.60;11.30;;;;;;;22.42;66.03;99424.39;106012;1273;25538;-81
2022/06/05 06:46:32;;;;;;;14.60;12.00;;;;;;;22.51;65.81;99422.38;105996;1273;25362;-71
2022/06/05 06:48:59;;;;;;;15.70;11.90;;;;;;;22.64;65.59;99421.79;106157;1273;23947;-81
2022/06/05 06:51:26;;;;;;;16.60;11.80;;;;;;;22.75;65.62;99425.23;105828;1274;22528;-83
2022/06/05 06:53:53;;;;;;;15.50;11.80;;;;;;;22.88;65.58;99422.61;106043;1273;22523;-77
2022/06/05 06:56:24;;;;;;;14.30;11.30;;;;;;;23.01;65.33;99423.92;106168;1273;25718;-82
2022/06/05 06:58:51;;;;;;;13.60;11.20;;;;;;;23.14;65.36;99424.03;105824;1276;24270;-79
2022/06/05 07:01:18;;;;;;;14.20;11.10;;;;;;;23.29;65.41;99425.75;105762;1276;25520;-75
2022/06/05 07:03:48;;;;;;;15.20;11.50;;;;;;;23.38;64.96;99429.14;106216;1273;25332;-74
2022/06/05 07:06:16;;;;;;;14.00;10.50;;;;;;;23.47;65.02;99429.17;106105;1273;25337;-75
2022/06/05 07:08:44;;;;;;;13.70;10.70;;;;;;;23.59;64.79;99427.20;105975;1273;24221;-79
2022/06/05 07:11:13;;;;;;;15.50;11.50;;;;;;;23.68;64.56;99421.77;106054;1273;22574;-75
2022/06/05 07:13:42;;;;;;;13.70;10.40;;;;;;;23.75;64.45;99421.59;105928;1273;22722;-78
2022/06/05 07:16:11;;;;;;;14.90;10.90;;;;;;;23.83;64.62;99420.47;105901;1273;22544;-81
2022/06/05 07:18:39;;;;;;;13.40;10.60;;;;;;;23.96;64.56;99421.92;106033;1273;24010;-75
2022/06/05 07:21:09;;;;;;;16.00;9.20;;;;;;;24.07;64.16;99415.60;106082;1273;22559;-76
2022/06/05 07:23:39;;;;;;;10.90;8.80;;;;;;;24.15;64.19;99408.29;106057;1273;23901;-77
2022/06/05 07:26:08;;;;;;;13.90;10.00;;;;;;;24.24;64.09;99408.99;106068;1274;22715;-78
2022/06/05 07:28:44;;;;;;;12.20;9.60;;;;;;;24.33;63.47;99401.98;106236;1273;22553;-76
2022/06/05 07:31:13;;;;;;;15.10;9.50;;;;;;;24.29;63.74;99399.69;105958;1274;22521;-79
2022/06/05 07:33:41;;;;;;;13.30;9.20;;;;;;;24.40;63.55;99398.14;105950;1273;24280;-80
2022/06/05 07:36:14;;;;;;;14.60;9.80;;;;;;;24.49;63.04;99389.80;105870;1274;24393;-78
2022/06/05 07:38:48;;;;;;;12.80;10.00;;;;;;;24.55;63.21;99388.54;105828;1273;22580;-76
2022/06/05 07:41:21;;;;;;;13.50;9.70;;;;;;;24.66;63.06;99388.62;105974;1274;22549;-75
2022/06/05 07:43:49;;;;;;;12.70;8.90;;;;;;;24.77;63.16;99388.79;105943;1273;25453;-74
2022/06/05 07:46:16;;;;;;;12.30;8.50;;;;;;;24.88;62.97;99386.75;105831;1274;22578;-79
2022/06/05 07:48:43;;;;;;;13.30;9.00;;;;;;;24.93;62.76;99386.17;105886;1273;24268;-76
2022/06/05 07:57:07;;;;;;;12.90;8.10;;;;;;;25.21;62.59;99386.20;105871;1273;26758;-79
2022/06/05 07:59:43;;;;;;;11.20;7.60;;;;;;;25.37;62.47;99384.66;105878;1273;22694;-78
2022/06/05 08:02:13;;;;;;;11.00;7.80;;;;;;;25.50;62.28;99387.42;106097;1277;22531;-80
2022/06/05 08:05:03;;;;;;;9.40;6.80;;;;;;;25.61;61.90;99388.17;106288;1273;25429;-74
2022/06/05 08:07:33;;;;;;;10.20;7.30;;;;;;;25.70;61.72;99391.79;105931;1273;24360;-83
2022/06/05 08:10:01;;;;;;;9.20;6.80;;;;;;;25.72;61.54;99392.61;106026;1274;22664;-81
2022/06/05 08:12:31;;;;;;;10.10;7.30;;;;;;;25.77;61.57;99389.87;106051;1273;25474;-76
2022/06/05 08:15:02;;;;;;;11.60;7.40;;;;;;;25.80;61.01;99386.56;105958;1273;25302;-77
2022/06/05 08:17:30;;;;;;;11.00;7.30;;;;;;;25.68;60.75;99383.52;105858;1275;22845;-81
2022/06/05 08:19:59;;;;;;;15.10;7.20;;;;;;;25.71;61.12;99380.77;105882;1273;22796;-78
2022/06/05 08:22:27;;;;;;;14.20;7.60;;;;;;;25.86;61.28;99382.06;106230;1273;22546;-77
2022/06/05 08:24:54;;;;;;;10.80;7.50;;;;;;;26.01;61.19;99388.16;106452;1273;22565;-77
2022/06/05 08:27:25;;;;;;;11.70;7.40;;;;;;;26.09;60.88;99389.98;105903;1273;24305;-76
2022/06/05 08:29:58;;;;;;;12.00;7.90;;;;;;;26.17;60.85;99383.70;106012;1274;24230;-84
2022/06/05 08:32:27;;;;;;;11.20;7.80;;;;;;;26.30;60.71;99380.73;105877;1276;24294;-76
2022/06/05 08:34:55;;;;;;;10.40;7.50;;;;;;;26.38;60.66;99373.58;106095;1273;24212;-84
2022/06/05 08:43:37;;;;;;;11.00;7.40;;;;;;;26.65;60.29;99372.67;106072;1273;22623;-77
2022/06/05 08:46:21;;;;;;;11.00;8.30;;;;;;;26.75;60.00;99370.59;106017;1273;22507;-78
2022/06/05 08:48:56;;;;;;;10.90;7.80;;;;;;;26.82;59.78;99369.69;105895;1275;22669;-80
2022/06/05 08:51:48;;;;;;;10.00;7.80;;;;;;;26.88;59.56;99368.98;105902;1273;24214;-77
2022/06/05 08:54:38;;;;;;;11.50;7.80;;;;;;;26.94;59.59;99367.04;105839;1275;22537;-81
2022/06/05 08:57:19;;;;;;;11.40;7.10;;;;;;;26.99;59.44;99368.61;106102;1273;22537;-80
2022/06/05 09:00:02;;;;;;;10.70;6.90;;;;;;;27.02;59.30;99362.92;105889;1273;25599;-76
2022/06/05 09:02:46;;;;;;;10.40;7.80;;;;;;;27.10;59.36;99366.38;106020;1273;22521;-73
2022/06/05 09:05:24;;;;;;;11.90;7.30;;;;;;;27.21;59.23;99367.61;105986;1271;24267;-75
2022/06/05 09:07:56;;;;;;;10.00;6.40;;;;;;;27.28;58.91;99366.70;105906;1273;24297;-75
2022/06/05 09:10:47;;;;;;;11.60;7.30;;;;;;;27.34;58.85;99359.47;106143;1273;22541;-82
2022/06/05 09:13:28;;;;;;;10.00;6.90;;;;;;;27.41;58.52;99364.14;106091;1273;24249;-75
2022/06/05 09:15:59;;;;;;;9.50;6.50;;;;;;;27.47;58.18;99369.49;105779;1277;24096;-75
2022/06/05 09:18:35;;;;;;;10.20;7.60;;;;;;;27.47;58.04;99363.80;106012;1273;24272;-75
2022/06/05 09:21:31;;;;;;;11.70;6.50;;;;;;;27.49;57.84;99365.91;105923;1274;22537;-78
2022/06/05 09:24:07;;;;;;;8.90;5.40;;;;;;;27.61;58.29;99360.75;105974;1273;24297;-78
2022/06/05 09:26:48;;;;;;;10.60;5.60;;;;;;;27.73;57.55;99354.05;106255;1273;23336;-76
2022/06/05 09:29:18;;;;;;;8.70;5.70;;;;;;;27.77;57.56;99349.86;106055;1273;22623;-74
2022/06/05 09:32:23;;;;;;;8.50;5.80;;;;;;;27.86;57.53;99349.26;105945;1274;25405;-75
2022/06/05 09:35:00;;;;;;;9.80;6.40;;;;;;;27.98;57.23;99347.10;105945;1274;25542;-75
2022/06/05 09:37:43;;;;;;;8.60;5.50;;;;;;;27.97;56.57;99340.23;105934;1276;22723;-78
2022/06/05 09:40:49;;;;;;;8.70;4.90;;;;;;;27.96;57.09;99334.14;105871;1276;24206;-81
2022/06/05 09:43:56;;;;;;;7.70;5.30;;;;;;;28.08;56.80;99334.83;105564;1282;22630;-76
2022/06/05 09:46:49;;;;;;;10.10;5.80;;;;;;;28.17;56.67;99339.21;105585;1281;22585;-77
2022/06/05 09:49:30;;;;;;;9.70;5.80;;;;;;;28.22;56.06;99332.52;106133;1281;22664;-80
2022/06/05 09:52:16;;;;;;;8.70;4.80;;;;;;;28.25;56.12;99328.42;105380;1281;22581;-74
2022/06/05 09:54:47;;;;;;;8.80;5.00;;;;;;;28.34;56.10;99326.30;106005;1281;23275;-74
2022/06/05 09:58:31;;;;;;;8.20;5.60;;;;;;;28.45;56.08;99322.69;105566;1283;25247;-76
2022/06/05 10:00:41;;;;;;;8.40;5.70;;;;;;;28.56;55.50;99317.23;105479;1281;22704;-75
2022/06/05 10:03:20;;;;;;;11.50;6.50;;;;;;;28.59;55.55;99309.12;105572;1282;25704;-80
2022/06/05 10:06:17;;;;;;;9.90;5.80;;;;;;;28.63;55.42;99314.35;105381;1283;23193;-80
2022/06/05 10:08:51;;;;;;;9.70;5.90;;;;;;;28.67;54.95;99315.83;105665;1282;22878;-78
2022/06/05 10:11:26;;;;;;;15.30;7.40;;;;;;;28.69;55.27;99315.69;106166;1281;22766;-79
2022/06/05 10:14:19;;;;;;;11.70;6.30;;;;;;;28.76;54.64;99314.67;105578;1281;22544;-80
2022/06/05 10:17:03;;;;;;;8.20;5.50;;;;;;;28.63;54.47;99316.96;106306;1281;22556;-75
2022/06/05 10:20:02;;;;;;;;;;;;;;;;;;;;;
2022/06/05 10:22:41;;;;;;;9.90;5.80;;;;;;;28.69;54.20;99307.33;106090;1273;24294;-76
2022/06/05 10:25:37;;;;;;;8.40;5.40;;;;;;;28.69;54.15;99311.98;105870;1274;24346;-75
2022/06/05 10:28:16;;;;;;;9.80;5.60;;;;;;;28.70;54.31;99308.46;105904;1274;25354;-75
2022/06/05 10:31:04;;;;;;;10.00;5.40;;;;;;;28.76;53.82;99304.27;105871;1274;22537;-76
2022/06/05 10:34:39;;;;;;;8.70;5.10;;;;;;;28.35;53.15;99301.17;106160;1273;22567;-75
2022/06/05 10:37:48;;;;;;;9.10;5.70;;;;;;;27.74;53.07;99301.77;105711;1281;22730;-77
2022/06/05 10:41:01;;;;;;;9.30;4.80;;;;;;;27.58;53.25;99297.19;105713;1281;22601;-74
2022/06/05 10:45:09;;;;;;;9.70;5.30;;;;;;;27.48;53.60;99300.85;105558;1282;24217;-75
2022/06/05 10:47:43;;;;;;;8.50;4.30;;;;;;;27.85;52.93;99301.38;104878;1284;22616;-80
2022/06/05 10:50:32;;;;;;;7.30;4.50;;;;;;;28.05;52.93;99298.42;105181;1282;22680;-80
2022/06/05 10:53:18;;;;;;;8.00;4.90;;;;;;;28.23;52.91;99286.55;105128;1282;22542;-81
2022/06/05 10:56:36;;;;;;;8.50;5.30;;;;;;;28.31;52.50;99289.66;105476;1282;25456;-75
2022/06/05 10:59:14;;;;;;;7.90;5.00;;;;;;;28.36;52.55;99285.46;105621;1282;22849;-75
2022/06/05 11:01:56;;;;;;;8.10;4.90;;;;;;;28.46;52.38;99289.80;106236;1281;22664;-75
2022/06/05 11:04:56;;;;;;;13.10;6.40;;;;;;;28.64;52.09;99279.79;105513;1281;22763;-80
2022/06/05 11:07:52;;;;;;;7.40;4.80;;;;;;;28.86;52.27;99276.59;105541;1281;22560;-75
2022/06/05 11:13:39;;;;;;;9.00;4.60;;;;;;;29.09;52.04;99273.38;105685;1273;22544;-80
2022/06/05 11:13:47;;;;;;;7.80;4.90;;;;;;;29.26;51.79;99272.17;105973;1273;24403;-75
2022/06/05 11:16:47;;;;;;;8.00;4.20;;;;;;;29.26;51.18;99272.28;106161;1273;24279;-72
2022/06/05 11:19:39;;;;;;;7.60;4.40;;;;;;;29.17;51.05;99269.29;105984;1277;24156;-75
2022/06/05 11:22:12;;;;;;;11.00;4.30;;;;;;;29.12;51.03;99265.98;106060;1276;23050;-77
2022/06/05 11:24:47;;;;;;;7.20;3.80;;;;;;;29.15;51.02;99269.05;106032;1273;23323;-75
2022/06/05 11:27:52;;;;;;;7.10;3.80;;;;;;;29.23;50.83;99266.02;105871;1274;23943;-75
2022/06/05 11:30:29;;;;;;;7.30;3.60;;;;;;;29.27;50.78;99256.08;105081;1282;24426;-75
2022/06/05 11:33:10;;;;;;;7.90;4.30;;;;;;;29.25;50.90;99252.15;105042;1281;22554;-74
2022/06/05 11:37:14;;;;;;;6.20;3.70;;;;;;;29.28;50.59;99248.98;105259;1281;22583;-73
2022/06/05 11:40:18;;;;;;;6.70;4.30;;;;;;;29.49;50.31;99240.27;104919;1287;25617;-75
2022/06/05 11:46:22;;;;;;;7.90;4.30;;;;;;;29.52;49.24;99237.59;104741;1287;25371;-74
2022/06/05 11:49:06;;;;;;;8.60;4.70;;;;;;;29.46;49.83;99236.41;105007;1287;24264;-75
2022/06/05 11:51:40;;;;;;;7.00;4.20;;;;;;;29.52;49.60;99233.52;105065;1287;24182;-74
2022/06/05 11:54:08;;;;;;;7.10;3.70;;;;;;;29.59;49.59;99234.59;105010;1287;25394;-74
2022/06/05 12:00:58;;;;;;;7.80;4.20;;;;;;;29.81;49.13;99224.89;105369;1287;24224;-74
2022/06/05 12:03:57;;;;;;;;;;;;;;;;;;;;;
2022/06/05 12:06:41;;;;;;;9.00;5.30;;;;;;;29.90;48.85;99215.95;105294;1282;25338;-77
2022/06/05 12:09:17;;;;;;;10.30;7.10;;;;;;;29.92;48.60;99207.42;105197;1284;22559;-76
2022/06/05 12:12:04;;;;;;;10.20;6.20;;;;;;;29.75;48.31;99206.32;105090;1282;23193;-77
2022/06/05 12:14:38;;;;;;;10.00;5.80;;;;;;;29.52;48.27;99200.20;105512;1276;22829;-74
2022/06/05 12:17:17;;;;;;;8.30;4.30;;;;;;;29.37;48.47;99192.65;106356;1276;25543;-74
2022/06/05 12:20:06;;;;;;;9.80;6.10;;;;;;;29.08;48.56;99192.12;105851;1274;22557;-76
2022/06/05 12:23:16;;;;;;;11.70;7.60;;;;;;;29.09;48.43;99193.85;106435;1274;24255;-77
2022/06/05 12:26:13;;;;;;;7.90;4.90;;;;;;;29.09;48.06;99189.50;105939;1273;24425;-75
2022/06/05 12:28:59;;;;;;;8.60;4.10;;;;;;;29.08;48.07;99182.44;105891;1274;25212;-78
2022/06/05 12:31:38;;;;;;;8.50;4.10;;;;;;;29.02;47.91;99176.96;105947;1274;25418;-74
2022/06/05 12:34:22;;;;;;;6.10;3.60;;;;;;;28.97;47.68;99170.55;105878;1276;25303;-75
2022/06/05 12:37:13;;;;;;;6.80;4.10;;;;;;;28.79;47.39;99170.00;105874;1275;23205;-77
2022/06/05 12:39:51;;;;;;;7.70;4.10;;;;;;;28.43;47.42;99170.46;105909;1274;24422;-78
2022/06/05 12:42:29;;;;;;;9.20;4.10;;;;;;;28.34;47.85;99166.52;105877;1274;22764;-81
2022/06/05 12:44:59;;;;;;;7.30;4.20;;;;;;;28.29;47.41;99167.39;105886;1275;22771;-75
2022/06/05 12:47:51;;;;;;;7.80;4.30;;;;;;;28.19;47.53;99163.52;106677;1274;22537;-80
2022/06/05 12:50:39;;;;;;;7.10;4.50;;;;;;;28.17;47.38;99160.23;105866;1274;22705;-75
2022/06/05 12:53:29;;;;;;;7.30;4.20;;;;;;;28.12;47.48;99159.42;106154;1274;22707;-76
2022/06/05 12:56:00;;;;;;;7.70;4.60;;;;;;;28.21;47.44;99155.14;106276;1273;22563;-75
2022/06/05 12:58:45;;;;;;;8.20;4.20;;;;;;;28.25;47.06;99155.84;106786;1273;23087;-74
2022/06/05 13:01:20;;;;;;;7.70;4.70;;;;;;;28.19;46.68;99153.17;105852;1275;22531;-80
2022/06/05 13:03:58;;;;;;;8.00;4.50;;;;;;;28.03;47.01;99157.42;105873;1276;25340;-74
2022/06/05 13:06:40;;;;;;;7.70;4.40;;;;;;;27.99;46.87;99154.73;106110;1274;22538;-76
2022/06/05 13:09:31;;;;;;;8.10;4.80;;;;;;;28.01;46.75;99148.83;105847;1274;22917;-75
2022/06/05 13:12:21;;;;;;;6.20;4.10;;;;;;;28.02;46.55;99145.40;105874;1274;22778;-74
2022/06/05 13:15:13;;;;;;;8.10;3.90;;;;;;;27.91;46.45;99144.90;105569;1274;25887;-75
2022/06/05 13:17:45;;;;;;;10.40;4.10;;;;;;;27.81;46.18;99137.42;105869;1277;26641;-75
2022/06/05 13:20:39;;;;;;;7.90;4.00;;;;;;;27.83;46.44;99130.85;105743;1275;22066;-80
2022/06/05 13:23:29;;;;;;;6.60;4.00;;;;;;;27.92;46.58;99126.83;105888;1277;22803;-74
2022/06/05 13:26:29;;;;;;;6.60;4.20;;;;;;;28.03;46.35;99124.34;106473;1274;22544;-75